Metz, West Virginia
Current Conditions -  °F | °C
As of 11:53 PM on Thursday 27 Nov 2014 (Local Time) from KCKB Reporting Station
Overcast Overcast  
Wind Chill: 21°   Ceiling: 1700
Heat Index: 29°   Visibility: 10mi
Dew Point: 25°   Wind: 8mph
Humidity: 85%   Direction: 270°W
Pressure: 30.26"   Gusts: NA
Location:  39.58°N, 80.37°W
Report Text: KCKB 280453Z AUTO 27007KT 10SM BKN017 OVC024 M02/M04 A3026 RMK AO2 SNE13 SLP252 P0000 T10171039 400221017 TSNO
Loading
Personal Weather Stations






























Interactive Weather Map New forecast layout! Learn more

10-Day Weather Forecast

Advertisements
Track Severe Weather on mobile